Terminal Aerodrome Forecast
Issued by NWS

Home | Current Version | Previous Version | Text Only | Print | Product List | Glossary On
Versions: 1 2 3 4 5 6 7 8 9 10 11 12 13 14 15 16 17 18 19 20 21 22 23 24
000
FTUS43 KDDC 251120
TAFHYS
TAF
KHYS 251120Z 2512/2612 09008KT P6SM BKN130
     FM251400 06011KT P6SM BKN040
     FM251700 36013G22KT P6SM OVC015
     FM252300 01013G22KT P6SM VCSH OVC025
     FM260300 36014G24KT P6SM VCSH OVC015
     FM260600 35018G27KT P6SM OVC015=

USA.gov is the U.S. government's official web portal to all federal, state and local government web resources and services.